createdAt,value
2023-02-13T00:02:18.478Z,78.97
2023-02-13T00:04:51.377Z,78.81
2023-02-13T00:07:20.720Z,78.97
2023-02-13T00:09:50.077Z,79.21
2023-02-13T00:12:19.275Z,78.91
2023-02-13T00:14:47.577Z,78.55
2023-02-13T00:17:15.837Z,78.87
2023-02-13T00:19:46.010Z,79.20
2023-02-13T00:22:16.698Z,78.43
2023-02-13T00:24:48.164Z,78.69
2023-02-13T00:27:18.557Z,78.86
2023-02-13T00:29:49.080Z,78.69
2023-02-13T00:32:17.724Z,79.39
2023-02-13T00:34:46.215Z,78.69
2023-02-13T00:37:19.195Z,79.15
2023-02-13T00:39:52.273Z,78.98
2023-02-13T00:42:26.492Z,78.87
2023-02-13T00:44:58.118Z,79.01
2023-02-13T00:47:29.610Z,79.15
2023-02-13T00:49:58.195Z,79.31
2023-02-13T00:52:27.589Z,79.12
2023-02-13T00:54:58.686Z,79.45
2023-02-13T00:57:32.697Z,79.02
2023-02-13T01:00:01.126Z,78.90
2023-02-13T01:02:36.262Z,78.86
2023-02-13T01:05:08.600Z,79.31
2023-02-13T01:07:38.667Z,79.28
2023-02-13T01:10:09.823Z,79.32
2023-02-13T01:12:38.321Z,79.36
2023-02-13T01:15:13.436Z,79.09
2023-02-13T01:17:43.277Z,79.18
2023-02-13T01:20:14.917Z,79.43
2023-02-13T01:22:44.592Z,79.24
2023-02-13T01:25:17.748Z,79.46
2023-02-13T01:27:46.974Z,79.38
2023-02-13T01:30:18.235Z,79.26
2023-02-13T01:32:49.623Z,78.98
2023-02-13T01:35:18.007Z,79.12
2023-02-13T01:37:46.078Z,79.13
2023-02-13T01:40:19.786Z,79.02
2023-02-13T01:42:48.232Z,78.62
2023-02-13T01:45:29.600Z,78.17
2023-02-13T01:48:01.985Z,78.16
2023-02-13T01:50:35.020Z,78.16
2023-02-13T01:53:08.622Z,78.80
2023-02-13T01:55:45.057Z,78.56
2023-02-13T01:58:18.561Z,78.13
2023-02-13T02:00:49.768Z,78.51
2023-02-13T02:03:25.671Z,78.69
2023-02-13T02:05:58.194Z,78.37
2023-02-13T02:08:30.142Z,78.32
2023-02-13T02:11:08.748Z,79.02
2023-02-13T02:13:39.990Z,79.63
2023-02-13T02:16:09.855Z,80.92
2023-02-13T02:18:39.033Z,81.42
2023-02-13T02:21:54.058Z,81.89
2023-02-13T02:25:08.636Z,81.18
2023-02-13T02:27:55.533Z,81.45
2023-02-13T02:30:53.495Z,81.58
2023-02-13T02:33:32.038Z,81.72
2023-02-13T02:36:16.626Z,82.15
2023-02-13T02:39:03.408Z,82.46
2023-02-13T02:41:49.257Z,82.92
2023-02-13T02:44:32.467Z,82.72
2023-02-13T02:47:28.614Z,83.54
2023-02-13T02:50:15.887Z,82.50
2023-02-13T02:52:57.848Z,83.26
2023-02-13T02:55:37.873Z,83.43
2023-02-13T02:58:30.952Z,83.74
2023-02-13T03:01:19.942Z,83.09
2023-02-13T03:04:10.996Z,83.95
2023-02-13T03:06:47.550Z,84.23
2023-02-13T03:09:38.997Z,84.40
2023-02-13T03:12:27.333Z,84.87
2023-02-13T03:14:58.274Z,84.55
2023-02-13T03:18:01.591Z,83.17
2023-02-13T03:20:59.618Z,83.89
2023-02-13T03:23:48.946Z,84.00
2023-02-13T03:26:55.037Z,84.43
2023-02-13T03:29:49.961Z,85.03
2023-02-13T03:32:27.484Z,83.85
2023-02-13T03:35:31.730Z,84.75
2023-02-13T03:38:10.610Z,85.60
2023-02-13T03:41:04.833Z,84.94
2023-02-13T03:43:40.444Z,86.04
2023-02-13T03:46:08.786Z,85.02
2023-02-13T03:49:00.782Z,85.77
2023-02-13T03:51:42.898Z,85.50
2023-02-13T03:54:20.706Z,85.97
2023-02-13T03:57:11.714Z,86.16
2023-02-13T03:59:41.581Z,86.41
2023-02-13T04:02:23.240Z,87.04
2023-02-13T04:05:01.404Z,86.98
2023-02-13T04:07:40.561Z,87.05
2023-02-13T04:10:17.415Z,86.61
2023-02-13T04:12:58.536Z,86.29
2023-02-13T04:15:34.269Z,88.12
2023-02-13T04:18:13.654Z,88.09
2023-02-13T04:20:42.888Z,88.31
2023-02-13T04:23:14.882Z,88.26
2023-02-13T04:25:47.334Z,87.93
2023-02-13T04:28:16.841Z,87.47
2023-02-13T04:30:46.059Z,87.20
2023-02-13T04:33:14.153Z,86.72
2023-02-13T04:35:42.442Z,87.36
2023-02-13T04:38:12.606Z,87.45
2023-02-13T04:40:41.213Z,87.20
2023-02-13T04:43:09.571Z,87.75
2023-02-13T04:45:41.368Z,87.25
2023-02-13T04:48:10.587Z,88.67
2023-02-13T04:50:40.882Z,87.87
2023-02-13T04:53:21.406Z,87.96
2023-02-13T04:55:56.069Z,88.38
2023-02-13T04:58:24.265Z,88.80
2023-02-13T05:00:54.977Z,89.33
2023-02-13T05:03:27.009Z,88.46
2023-02-13T05:05:56.731Z,88.32
2023-02-13T05:08:24.824Z,88.04
2023-02-13T05:10:59.251Z,88.14
2023-02-13T05:13:31.048Z,87.31
2023-02-13T05:16:06.065Z,87.42
2023-02-13T05:18:37.733Z,87.46
2023-02-13T05:21:24.090Z,88.00
2023-02-13T05:23:54.952Z,87.86
2023-02-13T05:26:23.877Z,88.32
2023-02-13T05:29:09.698Z,88.32
2023-02-13T05:31:43.429Z,88.21
2023-02-13T05:34:12.955Z,88.44
2023-02-13T05:36:41.454Z,88.14
2023-02-13T05:39:10.624Z,87.41
2023-02-13T05:41:43.502Z,87.56
2023-02-13T05:44:12.302Z,87.58
2023-02-13T05:46:45.845Z,88.12
2023-02-13T05:49:15.683Z,87.96
2023-02-13T05:51:48.496Z,88.11
2023-02-13T05:54:19.991Z,87.80
2023-02-13T05:56:48.827Z,88.18
2023-02-13T05:59:18.716Z,87.94
2023-02-13T06:01:48.773Z,87.82
2023-02-13T06:04:18.322Z,87.85
2023-02-13T06:06:49.681Z,88.19
2023-02-13T06:09:17.464Z,88.25
2023-02-13T06:11:46.263Z,88.48
2023-02-13T06:14:17.759Z,87.84
2023-02-13T06:16:49.981Z,87.79
2023-02-13T06:19:23.626Z,87.85
2023-02-13T06:21:57.270Z,87.66
2023-02-13T06:24:28.004Z,87.76
2023-02-13T06:27:00.761Z,87.80
2023-02-13T06:29:28.877Z,87.98
2023-02-13T06:32:04.934Z,87.81
2023-02-13T06:34:33.803Z,88.01
2023-02-13T06:37:05.761Z,88.23
2023-02-13T06:42:18.729Z,88.47
2023-02-13T06:44:50.963Z,88.71
2023-02-13T06:47:21.840Z,89.15
2023-02-13T06:49:52.429Z,88.90
2023-02-13T06:52:21.229Z,89.50
2023-02-13T06:54:50.983Z,89.54
2023-02-13T06:57:22.220Z,89.03
2023-02-13T06:59:50.815Z,88.48
2023-02-13T07:02:21.969Z,88.20
2023-02-13T07:04:50.072Z,88.24
2023-02-13T07:07:20.697Z,88.02
2023-02-13T07:09:49.407Z,88.42
2023-02-13T07:12:20.998Z,87.92
2023-02-13T07:14:50.192Z,88.20
2023-02-13T07:17:18.294Z,87.82
2023-02-13T07:19:48.382Z,87.47
2023-02-13T07:22:16.625Z,87.58
2023-02-13T07:24:45.483Z,87.88
2023-02-13T07:27:14.089Z,88.10
2023-02-13T07:29:56.271Z,88.01
2023-02-13T07:32:25.964Z,87.42
2023-02-13T07:35:02.064Z,87.58
2023-02-13T07:37:33.578Z,87.19
2023-02-13T07:40:07.033Z,87.71
2023-02-13T07:42:37.587Z,87.22
2023-02-13T07:45:11.976Z,87.67
2023-02-13T07:47:40.144Z,87.03
2023-02-13T07:50:15.688Z,87.32
2023-02-13T07:52:47.830Z,87.24
2023-02-13T07:55:24.226Z,87.50
2023-02-13T07:57:53.484Z,86.98
2023-02-13T08:00:24.917Z,87.86
2023-02-13T08:02:56.894Z,86.87
2023-02-13T08:05:50.735Z,86.97
2023-02-13T08:08:23.780Z,86.81
2023-02-13T08:11:09.279Z,87.28
2023-02-13T08:13:38.740Z,86.94
2023-02-13T08:16:08.073Z,87.23
2023-02-13T08:18:47.421Z,87.30
2023-02-13T08:21:21.456Z,86.75
2023-02-13T08:23:52.303Z,86.99
2023-02-13T08:26:25.072Z,86.50
2023-02-13T08:28:59.187Z,86.26
2023-02-13T08:31:31.999Z,86.18
2023-02-13T08:34:00.305Z,86.02
2023-02-13T08:36:30.016Z,86.22
2023-02-13T08:39:04.008Z,86.64
2023-02-13T08:41:33.685Z,86.27
2023-02-13T08:44:07.622Z,86.22
2023-02-13T08:46:35.690Z,86.48
2023-02-13T08:49:05.545Z,85.48
2023-02-13T08:51:43.806Z,85.45
2023-02-13T08:54:18.251Z,85.65
2023-02-13T08:56:49.656Z,85.66
2023-02-13T08:59:18.096Z,84.34
2023-02-13T09:01:46.141Z,84.89
2023-02-13T09:04:21.287Z,84.22
2023-02-13T09:06:52.187Z,84.31
2023-02-13T09:09:23.591Z,84.00
2023-02-13T09:11:57.879Z,84.22
2023-02-13T09:14:31.555Z,83.86
2023-02-13T09:17:03.514Z,83.76
2023-02-13T09:19:35.931Z,83.56
2023-02-13T09:22:07.351Z,83.18
2023-02-13T09:24:35.608Z,82.53
2023-02-13T09:27:09.669Z,83.22
2023-02-13T09:29:37.970Z,82.83
2023-02-13T09:32:08.194Z,82.09
2023-02-13T09:34:37.246Z,81.18
2023-02-13T09:37:12.935Z,81.16
2023-02-13T09:39:43.252Z,81.08
2023-02-13T09:42:56.116Z,80.50
2023-02-13T09:45:29.144Z,80.92
2023-02-13T09:48:15.218Z,80.81
2023-02-13T09:50:44.210Z,79.78
2023-02-13T09:53:22.032Z,79.82
2023-02-13T09:55:59.833Z,80.03
2023-02-13T09:58:42.464Z,78.89
2023-02-13T10:01:25.733Z,78.99
2023-02-13T10:04:17.784Z,78.45
2023-02-13T10:06:55.551Z,77.88
2023-02-13T10:09:50.184Z,76.81
2023-02-13T10:12:38.503Z,76.27
2023-02-13T10:15:21.899Z,76.50
2023-02-13T10:17:59.349Z,76.81
2023-02-13T10:20:33.768Z,76.59
2023-02-13T10:23:17.698Z,75.44
2023-02-13T10:25:58.738Z,75.37
2023-02-13T10:28:47.877Z,75.62
2023-02-13T10:31:35.073Z,75.66
2023-02-13T10:34:17.084Z,74.76
2023-02-13T10:36:52.101Z,74.11
2023-02-13T10:39:30.092Z,73.86
2023-02-13T10:42:20.372Z,73.03
2023-02-13T10:45:05.736Z,72.75
2023-02-13T10:47:59.493Z,71.96
2023-02-13T10:50:35.458Z,71.85
2023-02-13T10:53:18.503Z,70.99
2023-02-13T10:56:12.950Z,70.72
2023-02-13T10:58:55.567Z,69.34
2023-02-13T11:01:31.318Z,69.27
2023-02-13T11:04:13.775Z,69.21
2023-02-13T11:06:57.253Z,67.85
2023-02-13T11:09:26.528Z,67.82
2023-02-13T11:11:55.311Z,68.28
2023-02-13T11:14:36.224Z,67.80
2023-02-13T11:17:09.690Z,66.89
2023-02-13T11:19:53.874Z,66.79
2023-02-13T11:22:55.542Z,67.13
2023-02-13T11:25:31.004Z,66.23
2023-02-13T11:28:19.431Z,66.02
2023-02-13T11:30:50.914Z,65.47
2023-02-13T11:33:35.621Z,65.68
2023-02-13T11:36:10.791Z,65.76
2023-02-13T11:38:41.999Z,65.48
2023-02-13T11:41:15.535Z,64.56
2023-02-13T11:44:01.494Z,63.49
2023-02-13T11:46:55.773Z,63.46
2023-02-13T11:49:28.052Z,62.61
2023-02-13T11:52:06.569Z,63.07
2023-02-13T11:54:36.710Z,63.40
2023-02-13T11:57:26.501Z,62.52
2023-02-13T11:59:56.529Z,61.69
2023-02-13T12:02:29.727Z,61.12
2023-02-13T12:05:19.042Z,61.03
2023-02-13T12:07:51.807Z,61.37
2023-02-13T12:10:31.191Z,60.08
2023-02-13T12:13:04.289Z,59.61
2023-02-13T12:15:34.962Z,59.81
2023-02-13T12:18:15.981Z,59.34
2023-02-13T12:20:58.299Z,59.81
2023-02-13T12:23:37.255Z,59.22
2023-02-13T12:26:21.338Z,58.60
2023-02-13T12:29:20.897Z,58.62
2023-02-13T12:32:06.399Z,57.58
2023-02-13T12:35:07.129Z,57.81
2023-02-13T12:37:56.272Z,58.73
2023-02-13T12:40:37.465Z,56.98
2023-02-13T12:43:28.071Z,57.02
2023-02-13T12:46:04.124Z,56.81
2023-02-13T12:48:42.355Z,56.44
2023-02-13T12:51:43.079Z,56.11
2023-02-13T12:54:35.130Z,55.29
2023-02-13T12:57:14.268Z,55.53
2023-02-13T13:00:05.908Z,55.54
2023-02-13T13:03:07.068Z,55.80
2023-02-13T13:06:11.643Z,55.40
2023-02-13T13:08:58.123Z,54.98
2023-02-13T13:11:42.947Z,55.49
2023-02-13T13:14:36.140Z,54.66
2023-02-13T13:17:20.239Z,53.87
2023-02-13T13:19:55.954Z,55.08
2023-02-13T13:22:36.204Z,54.79
2023-02-13T13:25:22.408Z,54.13
2023-02-13T13:27:56.454Z,52.87
2023-02-13T13:30:28.821Z,53.91
2023-02-13T13:33:03.834Z,53.39
2023-02-13T13:35:34.076Z,52.83
2023-02-13T13:38:10.131Z,53.43
2023-02-13T13:40:54.817Z,51.89
2023-02-13T13:43:35.969Z,51.73
2023-02-13T13:46:13.531Z,50.78
2023-02-13T13:52:21.822Z,50.98
2023-02-13T13:54:51.936Z,51.33
2023-02-13T13:57:29.563Z,51.53
2023-02-13T14:00:27.297Z,51.13
2023-02-13T14:03:36.581Z,52.04
2023-02-13T14:06:09.035Z,51.83
2023-02-13T14:09:30.383Z,51.73
2023-02-13T14:12:02.408Z,51.63
2023-02-13T14:15:01.611Z,51.47
2023-02-13T14:17:54.971Z,52.20
2023-02-13T14:20:36.826Z,52.07
2023-02-13T14:23:38.681Z,52.14
2023-02-13T14:26:28.612Z,52.22
2023-02-13T14:29:17.873Z,52.75
2023-02-13T14:34:57.270Z,52.99
2023-02-13T14:37:41.081Z,53.62
2023-02-13T14:40:54.627Z,53.78
2023-02-13T14:43:34.990Z,52.64
2023-02-13T14:46:21.099Z,53.20
2023-02-13T14:49:18.342Z,53.42
2023-02-13T14:51:56.086Z,52.82
2023-02-13T14:54:34.834Z,53.24
2023-02-13T14:57:13.743Z,54.38
2023-02-13T14:59:48.099Z,53.97
2023-02-13T15:02:26.401Z,53.75
2023-02-13T15:05:02.306Z,54.07
2023-02-13T15:07:39.711Z,54.02
2023-02-13T15:10:37.232Z,53.10
2023-02-13T15:13:08.309Z,53.59
2023-02-13T15:15:41.228Z,53.60
2023-02-13T15:18:23.358Z,54.69
2023-02-13T15:20:58.652Z,55.07
2023-02-13T15:23:32.834Z,54.70
2023-02-13T15:26:08.737Z,57.20
2023-02-13T15:28:44.083Z,53.97
2023-02-13T15:31:24.321Z,52.73
2023-02-13T15:33:55.185Z,51.77
2023-02-13T15:36:40.262Z,51.43
2023-02-13T15:39:11.700Z,52.21
2023-02-13T15:41:53.540Z,52.90
2023-02-13T15:44:31.938Z,52.84
2023-02-13T15:47:09.454Z,53.61
2023-02-13T15:49:46.104Z,52.79
2023-02-13T15:52:24.060Z,50.71
2023-02-13T15:55:07.834Z,49.73
2023-02-13T15:57:42.901Z,50.78
2023-02-13T16:00:24.386Z,51.07
2023-02-13T16:03:00.825Z,52.35
2023-02-13T16:05:41.450Z,53.22
2023-02-13T16:08:45.946Z,53.81
2023-02-13T16:11:29.517Z,54.45
2023-02-13T16:14:06.163Z,55.03
2023-02-13T16:16:45.672Z,56.44
2023-02-13T16:19:46.132Z,56.10
2023-02-13T16:22:39.285Z,55.96
2023-02-13T16:25:28.212Z,57.10
2023-02-13T16:27:59.273Z,56.31
2023-02-13T16:30:33.749Z,56.55
2023-02-13T16:33:32.274Z,57.43
2023-02-13T16:36:18.414Z,56.84
2023-02-13T16:38:49.295Z,57.24
2023-02-13T16:41:34.829Z,57.10
2023-02-13T16:44:06.994Z,57.61
2023-02-13T16:46:41.045Z,58.38
2023-02-13T16:49:22.509Z,58.44
2023-02-13T16:51:59.137Z,59.06
2023-02-13T16:54:40.593Z,59.00
2023-02-13T16:57:26.325Z,59.74
2023-02-13T17:00:04.216Z,59.61
2023-02-13T17:02:37.061Z,59.81
2023-02-13T17:05:26.932Z,60.75
2023-02-13T17:08:01.386Z,61.13
2023-02-13T17:10:37.754Z,61.46
2023-02-13T17:13:17.891Z,61.66
2023-02-13T17:15:51.881Z,61.55
2023-02-13T17:18:20.669Z,62.00
2023-02-13T17:20:52.237Z,62.97
2023-02-13T17:23:23.986Z,63.29
2023-02-13T17:25:56.017Z,63.74
2023-02-13T17:28:28.162Z,64.16
2023-02-13T17:31:00.839Z,64.15
2023-02-13T17:33:34.690Z,64.63
2023-02-13T17:36:02.640Z,64.74
2023-02-13T17:38:31.664Z,65.21
2023-02-13T17:41:00.328Z,65.58
2023-02-13T17:43:32.490Z,65.77
2023-02-13T17:46:03.227Z,66.09
2023-02-13T17:48:32.579Z,66.33
2023-02-13T17:51:01.362Z,66.54
2023-02-13T17:53:34.505Z,66.42
2023-02-13T17:56:02.871Z,66.90
2023-02-13T17:58:40.091Z,66.69
2023-02-13T18:01:11.320Z,67.49
2023-02-13T18:03:43.935Z,67.39
2023-02-13T18:06:16.142Z,67.94
2023-02-13T18:08:53.820Z,68.42
2023-02-13T18:11:22.389Z,68.40
2023-02-13T18:13:52.082Z,68.86
2023-02-13T18:16:22.985Z,69.57
2023-02-13T18:18:52.106Z,69.29
2023-02-13T18:21:25.577Z,69.79
2023-02-13T18:23:55.410Z,70.34
2023-02-13T18:26:24.337Z,70.69
2023-02-13T18:28:55.338Z,70.65
2023-02-13T18:31:25.330Z,70.88
2023-02-13T18:33:55.117Z,70.85
2023-02-13T18:36:27.790Z,71.39
2023-02-13T18:39:00.420Z,71.47
2023-02-13T18:41:35.761Z,71.98
2023-02-13T18:44:12.546Z,71.98
2023-02-13T18:46:43.571Z,72.29
2023-02-13T18:49:13.604Z,72.01
2023-02-13T18:51:44.512Z,73.14
2023-02-13T18:54:13.257Z,73.19
2023-02-13T18:56:41.914Z,72.83
2023-02-13T18:59:16.515Z,74.07
2023-02-13T19:01:50.737Z,73.56
2023-02-13T19:04:18.976Z,73.98
2023-02-13T19:06:49.590Z,73.78
2023-02-13T19:09:17.587Z,74.37
2023-02-13T19:11:48.585Z,74.02
2023-02-13T19:14:25.907Z,75.12
2023-02-13T19:17:10.550Z,75.44
2023-02-13T19:19:40.156Z,75.89
2023-02-13T19:22:08.554Z,76.16
2023-02-13T19:24:38.731Z,76.46
2023-02-13T19:27:14.198Z,76.39
2023-02-13T19:29:51.806Z,76.86
2023-02-13T19:32:22.773Z,76.36
2023-02-13T19:34:52.364Z,76.30
2023-02-13T19:37:22.399Z,76.09
2023-02-13T19:39:50.254Z,76.46
2023-02-13T19:42:20.715Z,77.51
2023-02-13T19:44:50.033Z,77.48
2023-02-13T19:47:38.125Z,77.42
2023-02-13T19:50:09.685Z,77.97
2023-02-13T19:52:38.367Z,78.00
2023-02-13T19:55:07.739Z,78.68
2023-02-13T19:57:37.652Z,80.49
2023-02-13T20:00:11.020Z,80.38
2023-02-13T20:02:40.024Z,76.46
2023-02-13T20:05:09.616Z,76.70
2023-02-13T20:07:38.129Z,77.47
2023-02-13T20:10:09.973Z,78.49
2023-02-13T20:12:39.996Z,79.04
2023-02-13T20:15:10.444Z,79.08
2023-02-13T20:17:39.650Z,79.41
2023-02-13T20:20:09.931Z,79.24
2023-02-13T20:22:40.939Z,79.08
2023-02-13T20:25:10.073Z,78.82
2023-02-13T20:27:42.496Z,79.64
2023-02-13T20:30:16.413Z,79.62
2023-02-13T20:32:44.715Z,80.81
2023-02-13T20:35:13.677Z,80.61
2023-02-13T20:37:43.461Z,79.41
2023-02-13T20:40:15.895Z,79.11
2023-02-13T20:42:44.487Z,79.57
2023-02-13T20:45:16.395Z,78.98
2023-02-13T20:47:46.433Z,78.94
2023-02-13T20:50:14.847Z,79.35
2023-02-13T20:52:43.465Z,80.36
2023-02-13T20:55:19.222Z,80.39
2023-02-13T20:57:47.627Z,80.17
2023-02-13T21:00:25.251Z,81.39
2023-02-13T21:02:53.551Z,80.32
2023-02-13T21:05:22.436Z,80.73
2023-02-13T21:07:52.020Z,80.99
2023-02-13T21:10:20.709Z,81.61
2023-02-13T21:12:49.593Z,81.23
2023-02-13T21:15:20.849Z,81.30
2023-02-13T21:17:50.109Z,81.07
2023-02-13T21:20:18.863Z,81.57
2023-02-13T21:22:47.038Z,82.25
2023-02-13T21:25:19.292Z,81.92
2023-02-13T21:27:48.414Z,82.13
2023-02-13T21:30:25.548Z,82.72
2023-02-13T21:32:53.562Z,82.65
2023-02-13T21:35:21.668Z,82.42
2023-02-13T21:37:53.635Z,81.84
2023-02-13T21:40:23.122Z,82.28
2023-02-13T21:42:55.823Z,82.45
2023-02-13T21:45:31.115Z,82.92
2023-02-13T21:47:59.480Z,82.81
2023-02-13T21:50:32.889Z,83.14
2023-02-13T21:53:01.909Z,83.24
2023-02-13T21:55:30.278Z,83.32
2023-02-13T21:58:04.217Z,83.79
2023-02-13T22:00:35.717Z,84.64
2023-02-13T22:03:07.236Z,84.28
2023-02-13T22:05:49.217Z,84.67
2023-02-13T22:08:17.747Z,84.26
2023-02-13T22:10:58.431Z,83.72
2023-02-13T22:13:30.876Z,82.70
2023-02-13T22:16:04.972Z,82.97
2023-02-13T22:18:38.118Z,84.34
2023-02-13T22:21:07.717Z,84.22
2023-02-13T22:23:39.220Z,84.80
2023-02-13T22:26:07.380Z,85.09
2023-02-13T22:28:37.509Z,84.73
2023-02-13T22:31:13.646Z,85.01
2023-02-13T22:33:44.055Z,84.37
2023-02-13T22:36:15.530Z,84.77
2023-02-13T22:38:43.747Z,84.33
2023-02-13T22:41:16.927Z,84.83
2023-02-13T22:43:45.691Z,84.77
2023-02-13T22:46:19.378Z,85.17
2023-02-13T22:48:52.133Z,84.74
2023-02-13T22:51:23.728Z,85.24
2023-02-13T22:53:54.989Z,85.85
2023-02-13T22:56:25.174Z,85.32
2023-02-13T22:58:54.727Z,85.60
2023-02-13T23:01:25.942Z,86.20
2023-02-13T23:03:54.728Z,85.62
2023-02-13T23:06:27.689Z,85.46
2023-02-13T23:08:56.065Z,84.82
2023-02-13T23:11:44.196Z,85.14
2023-02-13T23:14:13.346Z,85.41
2023-02-13T23:17:02.491Z,86.26
2023-02-13T23:19:31.595Z,86.44
2023-02-13T23:22:00.231Z,86.14
2023-02-13T23:24:29.703Z,86.36
2023-02-13T23:27:04.479Z,86.04
2023-02-13T23:29:35.947Z,85.59
2023-02-13T23:32:06.315Z,85.72
2023-02-13T23:34:37.881Z,85.93
2023-02-13T23:37:07.044Z,86.11
2023-02-13T23:39:38.970Z,85.72
2023-02-13T23:42:09.284Z,85.27
2023-02-13T23:44:38.735Z,85.16
2023-02-13T23:47:08.721Z,85.31
2023-02-13T23:49:37.750Z,84.97
2023-02-13T23:52:07.153Z,84.53
2023-02-13T23:54:38.319Z,84.34
2023-02-13T23:57:09.707Z,85.75
2023-02-13T23:59:41.930Z,86.09
